sensor_id;sensor_type;location;lat;lon;timestamp;pressure;altitude;pressure_sealevel;temperature;humidity
41467;BME280;27205;53.690;19.948;2023-03-15T00:01:45;98338.98;;;2.54;98.69
41467;BME280;27205;53.690;19.948;2023-03-15T00:06:48;98349.38;;;2.51;98.67
41467;BME280;27205;53.690;19.948;2023-03-15T00:11:52;98357.23;;;2.47;98.86
41467;BME280;27205;53.690;19.948;2023-03-15T00:16:58;98371.18;;;2.48;99.18
41467;BME280;27205;53.690;19.948;2023-03-15T00:22:01;98380.30;;;2.51;99.61
41467;BME280;27205;53.690;19.948;2023-03-15T00:27:05;98392.58;;;2.52;99.67
41467;BME280;27205;53.690;19.948;2023-03-15T00:32:08;98395.06;;;2.52;99.93
41467;BME280;27205;53.690;19.948;2023-03-15T00:37:12;98398.05;;;2.53;99.79
41467;BME280;27205;53.690;19.948;2023-03-15T00:42:15;98414.52;;;2.56;99.93
41467;BME280;27205;53.690;19.948;2023-03-15T00:47:18;98429.03;;;2.59;99.93
41467;BME280;27205;53.690;19.948;2023-03-15T00:52:22;98436.46;;;2.63;99.96
41467;BME280;27205;53.690;19.948;2023-03-15T00:57:25;98453.19;;;2.67;100.00
41467;BME280;27205;53.690;19.948;2023-03-15T01:02:28;98470.40;;;2.71;100.00
41467;BME280;27205;53.690;19.948;2023-03-15T01:07:32;98464.81;;;2.72;100.00
41467;BME280;27205;53.690;19.948;2023-03-15T01:12:36;98469.11;;;2.75;100.00
41467;BME280;27205;53.690;19.948;2023-03-15T01:17:40;98470.66;;;2.79;100.00
41467;BME280;27205;53.690;19.948;2023-03-15T01:22:43;98489.62;;;2.80;100.00
41467;BME280;27205;53.690;19.948;2023-03-15T01:27:46;98501.44;;;2.80;100.00
41467;BME280;27205;53.690;19.948;2023-03-15T01:32:50;98525.38;;;2.79;100.00
41467;BME280;27205;53.690;19.948;2023-03-15T01:37:53;98532.66;;;2.80;100.00
41467;BME280;27205;53.690;19.948;2023-03-15T01:48:06;98528.86;;;2.82;100.00
41467;BME280;27205;53.690;19.948;2023-03-15T01:53:10;98534.96;;;2.81;100.00
41467;BME280;27205;53.690;19.948;2023-03-15T01:58:14;98555.38;;;2.81;100.00
41467;BME280;27205;53.690;19.948;2023-03-15T02:03:22;98551.46;;;2.83;100.00
41467;BME280;27205;53.690;19.948;2023-03-15T02:08:31;98556.48;;;2.88;100.00
41467;BME280;27205;53.690;19.948;2023-03-15T02:13:35;98588.08;;;2.90;100.00
41467;BME280;27205;53.690;19.948;2023-03-15T02:18:38;98601.35;;;2.92;100.00
41467;BME280;27205;53.690;19.948;2023-03-15T02:23:43;98593.16;;;2.91;100.00
41467;BME280;27205;53.690;19.948;2023-03-15T02:28:51;98595.00;;;2.84;100.00
41467;BME280;27205;53.690;19.948;2023-03-15T02:33:55;98607.66;;;2.79;100.00
41467;BME280;27205;53.690;19.948;2023-03-15T02:38:59;98605.82;;;2.71;100.00
41467;BME280;27205;53.690;19.948;2023-03-15T02:44:05;98610.86;;;2.67;100.00
41467;BME280;27205;53.690;19.948;2023-03-15T02:49:10;98636.71;;;2.65;100.00
41467;BME280;27205;53.690;19.948;2023-03-15T02:54:15;98647.31;;;2.66;100.00
41467;BME280;27205;53.690;19.948;2023-03-15T02:59:19;98669.64;;;2.67;100.00
41467;BME280;27205;53.690;19.948;2023-03-15T03:04:22;98695.83;;;2.67;100.00
41467;BME280;27205;53.690;19.948;2023-03-15T03:09:25;98707.88;;;2.66;100.00
41467;BME280;27205;53.690;19.948;2023-03-15T03:14:29;98721.01;;;2.66;100.00
41467;BME280;27205;53.690;19.948;2023-03-15T03:19:33;98721.36;;;2.69;100.00
41467;BME280;27205;53.690;19.948;2023-03-15T03:24:36;98721.29;;;2.73;100.00
41467;BME280;27205;53.690;19.948;2023-03-15T03:29:40;98723.94;;;2.79;100.00
41467;BME280;27205;53.690;19.948;2023-03-15T03:34:43;98731.57;;;2.83;100.00
41467;BME280;27205;53.690;19.948;2023-03-15T03:39:50;98741.80;;;2.87;100.00
41467;BME280;27205;53.690;19.948;2023-03-15T03:44:53;98760.70;;;2.94;100.00
41467;BME280;27205;53.690;19.948;2023-03-15T03:49:57;98772.39;;;3.01;100.00
41467;BME280;27205;53.690;19.948;2023-03-15T03:55:00;98791.22;;;3.05;100.00
41467;BME280;27205;53.690;19.948;2023-03-15T04:00:04;98809.16;;;3.07;100.00
41467;BME280;27205;53.690;19.948;2023-03-15T04:05:09;98817.98;;;3.06;100.00
41467;BME280;27205;53.690;19.948;2023-03-15T04:10:13;98827.69;;;3.02;100.00
41467;BME280;27205;53.690;19.948;2023-03-15T04:15:16;98835.42;;;2.95;100.00
41467;BME280;27205;53.690;19.948;2023-03-15T04:20:22;98850.23;;;2.86;100.00
41467;BME280;27205;53.690;19.948;2023-03-15T04:25:26;98855.48;;;2.78;100.00
41467;BME280;27205;53.690;19.948;2023-03-15T04:30:29;98866.66;;;2.68;100.00
41467;BME280;27205;53.690;19.948;2023-03-15T04:35:34;98877.02;;;2.58;100.00
41467;BME280;27205;53.690;19.948;2023-03-15T04:40:38;98880.30;;;2.51;100.00
41467;BME280;27205;53.690;19.948;2023-03-15T04:45:41;98884.59;;;2.44;100.00
41467;BME280;27205;53.690;19.948;2023-03-15T04:50:45;98891.54;;;2.33;100.00
41467;BME280;27205;53.690;19.948;2023-03-15T04:55:48;98898.50;;;2.25;100.00
41467;BME280;27205;53.690;19.948;2023-03-15T05:00:52;98905.80;;;2.18;100.00
41467;BME280;27205;53.690;19.948;2023-03-15T05:05:56;98915.11;;;2.11;100.00
41467;BME280;27205;53.690;19.948;2023-03-15T05:10:59;98934.09;;;2.08;100.00
41467;BME280;27205;53.690;19.948;2023-03-15T05:16:03;98950.45;;;2.12;100.00
41467;BME280;27205;53.690;19.948;2023-03-15T05:21:07;98954.11;;;2.22;100.00
41467;BME280;27205;53.690;19.948;2023-03-15T05:26:11;98965.02;;;2.28;100.00
41467;BME280;27205;53.690;19.948;2023-03-15T05:31:15;98987.05;;;2.37;100.00
41467;BME280;27205;53.690;19.948;2023-03-15T05:36:20;99002.45;;;2.41;100.00
41467;BME280;27205;53.690;19.948;2023-03-15T05:41:24;99002.80;;;2.43;100.00
41467;BME280;27205;53.690;19.948;2023-03-15T05:46:28;99011.69;;;2.48;100.00
41467;BME280;27205;53.690;19.948;2023-03-15T05:51:32;99017.79;;;2.61;100.00
41467;BME280;27205;53.690;19.948;2023-03-15T05:56:35;99023.48;;;2.74;100.00
41467;BME280;27205;53.690;19.948;2023-03-15T06:01:39;99042.61;;;2.85;100.00
41467;BME280;27205;53.690;19.948;2023-03-15T06:06:43;99052.39;;;2.87;100.00
41467;BME280;27205;53.690;19.948;2023-03-15T06:11:47;99059.91;;;2.90;100.00
41467;BME280;27205;53.690;19.948;2023-03-15T06:16:53;99065.94;;;2.98;100.00
41467;BME280;27205;53.690;19.948;2023-03-15T06:21:59;99072.56;;;2.95;100.00
41467;BME280;27205;53.690;19.948;2023-03-15T06:27:04;99080.16;;;2.93;100.00
41467;BME280;27205;53.690;19.948;2023-03-15T06:32:09;99096.09;;;3.00;100.00
41467;BME280;27205;53.690;19.948;2023-03-15T06:37:15;99110.20;;;2.99;100.00
41467;BME280;27205;53.690;19.948;2023-03-15T06:42:38;99124.33;;;3.04;100.00
41467;BME280;27205;53.690;19.948;2023-03-15T06:47:45;99135.20;;;3.09;100.00
41467;BME280;27205;53.690;19.948;2023-03-15T06:52:51;99136.98;;;3.21;100.00
41467;BME280;27205;53.690;19.948;2023-03-15T06:57:57;99138.96;;;3.24;100.00
41467;BME280;27205;53.690;19.948;2023-03-15T07:03:03;99141.59;;;3.43;100.00
41467;BME280;27205;53.690;19.948;2023-03-15T07:21:05;99172.75;;;3.83;100.00
41467;BME280;27205;53.690;19.948;2023-03-15T07:26:10;99180.37;;;3.88;100.00
41467;BME280;27205;53.690;19.948;2023-03-15T07:31:14;99187.43;;;3.91;100.00
41467;BME280;27205;53.690;19.948;2023-03-15T07:36:17;99190.40;;;3.82;99.51
41467;BME280;27205;53.690;19.948;2023-03-15T07:41:20;99196.60;;;3.74;99.32
41467;BME280;27205;53.690;19.948;2023-03-15T07:46:24;99205.56;;;3.88;99.82
41467;BME280;27205;53.690;19.948;2023-03-15T07:51:28;99205.54;;;3.99;99.71
41467;BME280;27205;53.690;19.948;2023-03-15T07:56:31;99217.41;;;4.12;99.36
41467;BME280;27205;53.690;19.948;2023-03-15T08:01:35;99231.51;;;4.18;99.43
41467;BME280;27205;53.690;19.948;2023-03-15T08:06:38;99235.73;;;4.27;98.70
41467;BME280;27205;53.690;19.948;2023-03-15T08:11:42;99248.95;;;4.44;98.58
41467;BME280;27205;53.690;19.948;2023-03-15T08:16:49;99254.81;;;4.51;98.64
41467;BME280;27205;53.690;19.948;2023-03-15T08:21:52;99261.69;;;4.41;97.30
41467;BME280;27205;53.690;19.948;2023-03-15T08:26:56;99265.31;;;4.46;97.18
41467;BME280;27205;53.690;19.948;2023-03-15T08:31:59;99275.30;;;4.58;96.68
41467;BME280;27205;53.690;19.948;2023-03-15T08:37:03;99290.82;;;4.64;96.25
41467;BME280;27205;53.690;19.948;2023-03-15T08:42:07;99301.25;;;4.60;95.99
41467;BME280;27205;53.690;19.948;2023-03-15T08:47:10;99306.95;;;4.82;96.05
41467;BME280;27205;53.690;19.948;2023-03-15T08:52:14;99309.48;;;5.01;95.59
41467;BME280;27205;53.690;19.948;2023-03-15T08:57:20;99319.25;;;5.32;95.41
41467;BME280;27205;53.690;19.948;2023-03-15T09:02:27;99333.35;;;5.62;94.38
41467;BME280;27205;53.690;19.948;2023-03-15T09:07:32;99338.46;;;5.88;93.08
41467;BME280;27205;53.690;19.948;2023-03-15T09:12:35;99347.04;;;5.97;92.17
41467;BME280;27205;53.690;19.948;2023-03-15T09:17:39;99354.08;;;6.10;92.59
41467;BME280;27205;53.690;19.948;2023-03-15T09:22:43;99362.74;;;6.01;91.06
41467;BME280;27205;53.690;19.948;2023-03-15T09:27:52;99371.48;;;6.02;90.86
41467;BME280;27205;53.690;19.948;2023-03-15T09:32:55;99386.15;;;5.96;90.33
41467;BME280;27205;53.690;19.948;2023-03-15T09:37:59;99387.81;;;5.95;89.88
41467;BME280;27205;53.690;19.948;2023-03-15T09:53:46;99403.81;;;6.03;87.56
41467;BME280;27205;53.690;19.948;2023-03-15T09:58:57;99403.70;;;5.85;88.11
41467;BME280;27205;53.690;19.948;2023-03-15T10:04:11;99411.67;;;5.84;87.08
41467;BME280;27205;53.690;19.948;2023-03-15T10:09:17;99415.68;;;5.82;87.53
41467;BME280;27205;53.690;19.948;2023-03-15T10:30:20;99429.32;;;6.38;85.71
41467;BME280;27205;53.690;19.948;2023-03-15T10:35:25;99441.36;;;6.84;86.40
41467;BME280;27205;53.690;19.948;2023-03-15T10:46:02;99440.39;;;7.85;85.53
41467;BME280;27205;53.690;19.948;2023-03-15T10:51:19;99444.86;;;8.05;84.04
41467;BME280;27205;53.690;19.948;2023-03-15T10:56:25;99451.27;;;8.15;83.92
41467;BME280;27205;53.690;19.948;2023-03-15T11:01:32;99440.09;;;8.12;83.01
41467;BME280;27205;53.690;19.948;2023-03-15T11:12:04;99450.66;;;8.36;83.01
41467;BME280;27205;53.690;19.948;2023-03-15T11:17:21;99460.01;;;8.17;81.24
41467;BME280;27205;53.690;19.948;2023-03-15T11:22:25;99463.47;;;7.87;81.84
41467;BME280;27205;53.690;19.948;2023-03-15T11:27:29;99472.39;;;7.71;82.93
41467;BME280;27205;53.690;19.948;2023-03-15T11:32:33;99476.69;;;7.60;82.28
41467;BME280;27205;53.690;19.948;2023-03-15T11:37:48;99475.67;;;7.39;83.71
41467;BME280;27205;53.690;19.948;2023-03-15T11:53:17;99490.23;;;7.75;80.66
41467;BME280;27205;53.690;19.948;2023-03-15T11:58:35;99494.64;;;7.88;80.79
41467;BME280;27205;53.690;19.948;2023-03-15T12:03:44;99491.77;;;7.82;81.03
41467;BME280;27205;53.690;19.948;2023-03-15T12:08:50;99492.73;;;7.67;80.74
41467;BME280;27205;53.690;19.948;2023-03-15T12:19:07;99494.27;;;7.89;81.75
41467;BME280;27205;53.690;19.948;2023-03-15T12:29:27;99507.58;;;7.50;81.91
41467;BME280;27205;53.690;19.948;2023-03-15T12:34:47;99513.37;;;7.09;81.55
41467;BME280;27205;53.690;19.948;2023-03-15T12:40:05;99514.27;;;6.72;81.08
41467;BME280;27205;53.690;19.948;2023-03-15T12:45:38;99508.70;;;6.21;81.30
41467;BME280;27205;53.690;19.948;2023-03-15T12:55:50;99532.10;;;5.67;82.62
41467;BME280;27205;53.690;19.948;2023-03-15T13:01:09;99555.95;;;5.31;82.04
41467;BME280;27205;53.690;19.948;2023-03-15T13:17:09;99549.40;;;4.41;84.82
41467;BME280;27205;53.690;19.948;2023-03-15T13:32:36;99572.33;;;4.97;85.50
41467;BME280;27205;53.690;19.948;2023-03-15T13:37:40;99577.82;;;4.73;84.87
41467;BME280;27205;53.690;19.948;2023-03-15T13:42:47;99583.16;;;4.72;84.88
41467;BME280;27205;53.690;19.948;2023-03-15T13:47:50;99595.36;;;4.89;85.22
41467;BME280;27205;53.690;19.948;2023-03-15T13:52:54;99605.42;;;5.08;85.27
41467;BME280;27205;53.690;19.948;2023-03-15T13:57:58;99614.23;;;4.92;84.82
41467;BME280;27205;53.690;19.948;2023-03-15T14:03:10;99618.20;;;4.69;85.77
41467;BME280;27205;53.690;19.948;2023-03-15T14:08:31;99619.09;;;4.60;86.49
41467;BME280;27205;53.690;19.948;2023-03-15T14:13:50;99624.20;;;4.58;86.25
41467;BME280;27205;53.690;19.948;2023-03-15T14:18:54;99625.37;;;4.63;86.66
41467;BME280;27205;53.690;19.948;2023-03-15T14:24:05;99629.92;;;4.98;87.03
41467;BME280;27205;53.690;19.948;2023-03-15T14:29:17;99634.53;;;5.35;87.03
41467;BME280;27205;53.690;19.948;2023-03-15T14:34:36;99637.70;;;5.54;86.81
41467;BME280;27205;53.690;19.948;2023-03-15T14:39:45;99644.25;;;5.91;87.43
41467;BME280;27205;53.690;19.948;2023-03-15T14:44:49;99647.66;;;6.64;87.49
41467;BME280;27205;53.690;19.948;2023-03-15T14:49:52;99648.85;;;7.70;86.98
41467;BME280;27205;53.690;19.948;2023-03-15T14:54:56;99649.86;;;8.59;86.57
41467;BME280;27205;53.690;19.948;2023-03-15T15:00:00;99654.16;;;9.01;86.03
41467;BME280;27205;53.690;19.948;2023-03-15T15:10:23;99665.61;;;8.68;87.57
41467;BME280;27205;53.690;19.948;2023-03-15T15:15:27;99668.80;;;8.55;87.12
41467;BME280;27205;53.690;19.948;2023-03-15T15:20:31;99679.21;;;8.18;86.41
41467;BME280;27205;53.690;19.948;2023-03-15T15:25:34;99682.96;;;7.61;86.09
41467;BME280;27205;53.690;19.948;2023-03-15T15:30:38;99695.72;;;7.06;86.54
41467;BME280;27205;53.690;19.948;2023-03-15T15:35:41;99708.85;;;6.38;85.92
41467;BME280;27205;53.690;19.948;2023-03-15T15:40:45;99719.98;;;5.62;84.10
41467;BME280;27205;53.690;19.948;2023-03-15T15:45:48;99724.89;;;5.34;84.54
41467;BME280;27205;53.690;19.948;2023-03-15T15:50:52;99732.77;;;5.79;84.49
41467;BME280;27205;53.690;19.948;2023-03-15T15:55:55;99737.35;;;6.92;83.97
41467;BME280;27205;53.690;19.948;2023-03-15T16:00:59;99744.28;;;8.46;83.61
41467;BME280;27205;53.690;19.948;2023-03-15T16:06:02;99743.31;;;8.78;82.62
41467;BME280;27205;53.690;19.948;2023-03-15T16:11:06;99747.13;;;10.87;82.69
41467;BME280;27205;53.690;19.948;2023-03-15T16:16:14;99756.00;;;12.49;81.19
41467;BME280;27205;53.690;19.948;2023-03-15T16:21:59;99765.69;;;13.42;81.71
41467;BME280;27205;53.690;19.948;2023-03-15T16:26:59;99770.61;;;13.54;81.59
41467;BME280;27205;53.690;19.948;2023-03-15T16:32:04;99775.94;;;12.55;81.82
41467;BME280;27205;53.690;19.948;2023-03-15T16:37:25;99783.48;;;10.68;82.67
41467;BME280;27205;53.690;19.948;2023-03-15T16:42:31;99783.89;;;9.19;83.72
41467;BME280;27205;53.690;19.948;2023-03-15T16:47:34;99782.87;;;8.00;84.11
41467;BME280;27205;53.690;19.948;2023-03-15T16:52:38;99783.46;;;7.09;85.18
41467;BME280;27205;53.690;19.948;2023-03-15T16:57:44;99786.74;;;6.36;85.33
41467;BME280;27205;53.690;19.948;2023-03-15T17:02:49;99793.09;;;5.66;85.52
41467;BME280;27205;53.690;19.948;2023-03-15T17:07:54;99799.27;;;5.06;85.44
41467;BME280;27205;53.690;19.948;2023-03-15T17:13:01;99808.61;;;4.57;85.60
41467;BME280;27205;53.690;19.948;2023-03-15T17:18:14;99818.10;;;4.18;86.01
41467;BME280;27205;53.690;19.948;2023-03-15T17:23:21;99823.12;;;3.84;86.35
41467;BME280;27205;53.690;19.948;2023-03-15T17:28:28;99819.67;;;3.50;86.33
41467;BME280;27205;53.690;19.948;2023-03-15T17:33:31;99821.07;;;3.27;86.68
41467;BME280;27205;53.690;19.948;2023-03-15T17:38:35;99825.08;;;3.05;86.77
41467;BME280;27205;53.690;19.948;2023-03-15T17:43:44;99826.55;;;2.90;87.06
41467;BME280;27205;53.690;19.948;2023-03-15T17:48:53;99828.21;;;2.75;87.12
41467;BME280;27205;53.690;19.948;2023-03-15T17:53:58;99834.89;;;2.59;87.31
41467;BME280;27205;53.690;19.948;2023-03-15T17:59:02;99843.70;;;2.39;87.28
41467;BME280;27205;53.690;19.948;2023-03-15T18:04:09;99848.05;;;2.21;87.44
41467;BME280;27205;53.690;19.948;2023-03-15T18:09:14;99847.61;;;2.07;87.49
41467;BME280;27205;53.690;19.948;2023-03-15T18:14:18;99847.89;;;1.96;87.65
41467;BME280;27205;53.690;19.948;2023-03-15T18:19:22;99849.80;;;1.84;87.75
41467;BME280;27205;53.690;19.948;2023-03-15T18:24:26;99849.65;;;1.71;87.99
41467;BME280;27205;53.690;19.948;2023-03-15T18:29:29;99854.20;;;1.67;88.35
41467;BME280;27205;53.690;19.948;2023-03-15T18:34:33;99861.00;;;1.69;88.45
41467;BME280;27205;53.690;19.948;2023-03-15T18:39:37;99861.05;;;1.65;88.50
41467;BME280;27205;53.690;19.948;2023-03-15T18:44:41;99862.45;;;1.60;88.51
41467;BME280;27205;53.690;19.948;2023-03-15T18:49:46;99864.81;;;1.58;88.51
41467;BME280;27205;53.690;19.948;2023-03-15T18:54:53;99870.06;;;1.54;88.53
41467;BME280;27205;53.690;19.948;2023-03-15T18:59:56;99878.48;;;1.51;88.72
41467;BME280;27205;53.690;19.948;2023-03-15T19:05:00;99883.31;;;1.50;88.89
41467;BME280;27205;53.690;19.948;2023-03-15T19:10:06;99886.51;;;1.49;88.82
41467;BME280;27205;53.690;19.948;2023-03-15T19:15:11;99895.67;;;1.47;89.18
41467;BME280;27205;53.690;19.948;2023-03-15T19:20:18;99898.96;;;1.50;89.17
41467;BME280;27205;53.690;19.948;2023-03-15T19:25:24;99902.98;;;1.51;89.09
41467;BME280;27205;53.690;19.948;2023-03-15T19:30:28;99905.58;;;1.49;89.27
41467;BME280;27205;53.690;19.948;2023-03-15T19:35:31;99908.21;;;1.44;89.24
41467;BME280;27205;53.690;19.948;2023-03-15T19:40:36;99915.52;;;1.37;88.96
41467;BME280;27205;53.690;19.948;2023-03-15T19:45:40;99917.20;;;1.22;88.90
41467;BME280;27205;53.690;19.948;2023-03-15T19:50:43;99924.66;;;1.08;88.98
41467;BME280;27205;53.690;19.948;2023-03-15T19:55:47;99927.02;;;0.99;89.07
41467;BME280;27205;53.690;19.948;2023-03-15T20:00:53;99933.29;;;0.87;89.00
41467;BME280;27205;53.690;19.948;2023-03-15T20:06:06;99939.13;;;0.77;89.15
41467;BME280;27205;53.690;19.948;2023-03-15T20:11:10;99940.34;;;0.73;89.05
41467;BME280;27205;53.690;19.948;2023-03-15T20:16:22;99945.80;;;0.70;89.00
41467;BME280;27205;53.690;19.948;2023-03-15T20:21:25;99946.33;;;0.71;89.12
41467;BME280;27205;53.690;19.948;2023-03-15T20:26:29;99947.35;;;0.69;89.16
41467;BME280;27205;53.690;19.948;2023-03-15T20:31:33;99955.11;;;0.68;89.09
41467;BME280;27205;53.690;19.948;2023-03-15T20:36:36;99954.89;;;0.68;89.22
41467;BME280;27205;53.690;19.948;2023-03-15T20:41:40;99954.60;;;0.65;89.13
41467;BME280;27205;53.690;19.948;2023-03-15T20:46:44;99958.40;;;0.65;89.20
41467;BME280;27205;53.690;19.948;2023-03-15T20:51:47;99962.86;;;0.68;89.05
41467;BME280;27205;53.690;19.948;2023-03-15T20:56:51;99967.89;;;0.68;89.07
41467;BME280;27205;53.690;19.948;2023-03-15T21:01:54;99970.16;;;0.65;89.03
41467;BME280;27205;53.690;19.948;2023-03-15T21:06:58;99976.09;;;0.62;88.88
41467;BME280;27205;53.690;19.948;2023-03-15T21:12:06;99977.88;;;0.60;88.67
41467;BME280;27205;53.690;19.948;2023-03-15T21:17:10;99978.67;;;0.59;88.45
41467;BME280;27205;53.690;19.948;2023-03-15T21:22:16;99979.55;;;0.54;88.48
41467;BME280;27205;53.690;19.948;2023-03-15T21:27:20;99981.21;;;0.52;88.63
41467;BME280;27205;53.690;19.948;2023-03-15T21:32:23;99985.50;;;0.48;88.55
41467;BME280;27205;53.690;19.948;2023-03-15T21:37:27;99991.73;;;0.44;88.74
41467;BME280;27205;53.690;19.948;2023-03-15T21:42:31;99995.23;;;0.41;88.99
41467;BME280;27205;53.690;19.948;2023-03-15T21:47:35;99991.89;;;0.35;89.12
41467;BME280;27205;53.690;19.948;2023-03-15T21:52:39;99996.66;;;0.29;89.13
41467;BME280;27205;53.690;19.948;2023-03-15T21:57:42;100004.52;;;0.24;88.95
41467;BME280;27205;53.690;19.948;2023-03-15T22:02:46;100007.39;;;0.23;89.29
41467;BME280;27205;53.690;19.948;2023-03-15T22:07:50;100007.87;;;0.21;89.09
41467;BME280;27205;53.690;19.948;2023-03-15T22:12:53;100015.23;;;0.20;88.97
41467;BME280;27205;53.690;19.948;2023-03-15T22:17:57;100018.48;;;0.21;89.03
41467;BME280;27205;53.690;19.948;2023-03-15T22:23:00;100022.14;;;0.17;88.84
41467;BME280;27205;53.690;19.948;2023-03-15T22:28:06;100032.38;;;0.14;88.94
41467;BME280;27205;53.690;19.948;2023-03-15T22:33:10;100031.83;;;0.14;88.90
41467;BME280;27205;53.690;19.948;2023-03-15T22:38:14;100032.53;;;0.14;88.88
41467;BME280;27205;53.690;19.948;2023-03-15T22:43:17;100033.32;;;0.11;88.47
41467;BME280;27205;53.690;19.948;2023-03-15T22:48:21;100030.71;;;0.08;88.59
41467;BME280;27205;53.690;19.948;2023-03-15T22:53:26;100040.23;;;0.08;88.54
41467;BME280;27205;53.690;19.948;2023-03-15T22:58:30;100037.88;;;0.12;88.73
41467;BME280;27205;53.690;19.948;2023-03-15T23:03:34;100046.08;;;0.11;88.52
41467;BME280;27205;53.690;19.948;2023-03-15T23:08:37;100044.64;;;0.07;88.40
41467;BME280;27205;53.690;19.948;2023-03-15T23:13:41;100049.01;;;0.02;88.69
41467;BME280;27205;53.690;19.948;2023-03-15T23:18:44;100051.20;;;-0.03;88.37
41467;BME280;27205;53.690;19.948;2023-03-15T23:23:48;100053.25;;;-0.08;88.36
41467;BME280;27205;53.690;19.948;2023-03-15T23:28:53;100058.69;;;-0.12;88.08
41467;BME280;27205;53.690;19.948;2023-03-15T23:33:56;100063.02;;;-0.13;88.03
41467;BME280;27205;53.690;19.948;2023-03-15T23:39:00;100066.91;;;-0.16;88.04
41467;BME280;27205;53.690;19.948;2023-03-15T23:44:03;100070.55;;;-0.17;88.30
41467;BME280;27205;53.690;19.948;2023-03-15T23:49:07;100075.89;;;-0.18;88.20
41467;BME280;27205;53.690;19.948;2023-03-15T23:54:10;100077.61;;;-0.23;88.21
41467;BME280;27205;53.690;19.948;2023-03-15T23:59:14;100085.52;;;-0.27;87.96
